createdAt,value
2023-04-28T00:01:25.322Z,27.87
2023-04-28T00:06:24.623Z,28.08
2023-04-28T00:11:21.893Z,28.59
2023-04-28T00:16:22.216Z,28.90
2023-04-28T00:21:22.273Z,29.11
2023-04-28T00:26:20.521Z,29.72
2023-04-28T00:31:19.815Z,30.33
2023-04-28T00:36:19.053Z,30.55
2023-04-28T00:41:18.331Z,30.66
2023-04-28T00:46:18.746Z,31.27
2023-04-28T00:51:17.885Z,31.68
2023-04-28T00:56:16.122Z,32.20
2023-04-28T01:01:16.427Z,32.21
2023-04-28T01:06:14.685Z,32.62
2023-04-28T01:11:13.934Z,32.84
2023-04-28T01:16:13.218Z,32.93
2023-04-28T01:21:12.456Z,32.86
2023-04-28T01:26:11.699Z,33.56
2023-04-28T01:31:11.022Z,33.47
2023-04-28T01:36:10.268Z,33.98
2023-04-28T01:41:09.551Z,33.58
2023-04-28T01:46:09.816Z,33.60
2023-04-28T01:51:08.057Z,34.50
2023-04-28T01:56:08.319Z,34.61
2023-04-28T02:01:08.641Z,34.51
2023-04-28T02:06:06.869Z,34.71
2023-04-28T02:11:05.105Z,34.73
2023-04-28T02:16:04.356Z,34.13
2023-04-28T02:21:03.608Z,34.63
2023-04-28T02:26:01.861Z,34.75
2023-04-28T02:31:03.165Z,35.05
2023-04-28T02:36:01.425Z,34.75
2023-04-28T02:41:00.681Z,35.06
2023-04-28T02:46:01.000Z,35.16
2023-04-28T02:50:59.346Z,35.16
2023-04-28T02:55:58.641Z,35.28
2023-04-28T03:00:56.943Z,37.79
2023-04-28T03:05:57.233Z,39.73
2023-04-28T03:10:57.541Z,39.63
2023-04-28T03:15:56.854Z,40.71
2023-04-28T03:20:55.114Z,42.21
2023-04-28T03:25:53.418Z,41.61
2023-04-28T03:30:55.677Z,42.33
2023-04-28T03:35:52.921Z,42.43
2023-04-28T03:40:53.197Z,41.63
2023-04-28T03:45:51.530Z,42.76
2023-04-28T03:50:50.759Z,43.38
2023-04-28T03:55:52.038Z,44.00
2023-04-28T04:00:51.300Z,44.82
2023-04-28T04:05:47.728Z,44.14
2023-04-28T04:10:48.745Z,41.51
2023-04-28T04:15:48.007Z,42.69
2023-04-28T04:20:47.253Z,41.19
2023-04-28T04:25:44.564Z,44.10
2023-04-28T04:30:45.836Z,40.69
2023-04-28T04:35:47.271Z,42.60
2023-04-28T04:40:43.312Z,43.50
2023-04-28T04:45:42.617Z,44.42
2023-04-28T04:50:41.895Z,44.34
2023-04-28T04:55:42.185Z,46.19
2023-04-28T05:00:40.446Z,45.67
2023-04-28T05:05:39.712Z,45.04
2023-04-28T05:10:39.946Z,45.97
2023-04-28T05:15:39.185Z,45.69
2023-04-28T05:20:38.446Z,47.22
2023-04-28T05:25:37.716Z,43.78
2023-04-28T05:30:35.966Z,44.36
2023-04-28T05:35:35.230Z,44.18
2023-04-28T05:40:34.552Z,45.39
2023-04-28T05:45:34.862Z,45.47
2023-04-28T05:50:33.139Z,45.89
2023-04-28T05:55:32.432Z,45.39
2023-04-28T06:00:31.677Z,46.22
2023-04-28T06:05:31.214Z,47.04
2023-04-28T06:10:29.127Z,45.81
2023-04-28T06:15:30.409Z,43.78
2023-04-28T06:20:28.669Z,43.28
2023-04-28T06:25:27.936Z,42.16
2023-04-28T06:30:27.224Z,42.76
2023-04-28T06:35:28.584Z,41.55
2023-04-28T06:40:25.885Z,42.46
2023-04-28T06:45:26.153Z,41.45
2023-04-28T06:50:24.521Z,41.74
2023-04-28T06:55:23.634Z,42.03
2023-04-28T07:00:23.912Z,41.33
2023-04-28T07:05:22.166Z,41.83
2023-04-28T07:10:22.414Z,42.03
2023-04-28T07:15:21.658Z,43.06
2023-04-28T07:20:19.911Z,43.06
2023-04-28T07:25:19.167Z,42.96
2023-04-28T07:35:17.752Z,44.56
2023-04-28T07:40:18.038Z,44.96
2023-04-28T07:45:17.309Z,43.46
2023-04-28T07:50:17.564Z,43.66
2023-04-28T07:55:14.801Z,44.06
2023-04-28T08:00:15.061Z,42.96
2023-04-28T08:05:13.546Z,42.86
2023-04-28T08:10:13.543Z,42.55
2023-04-28T08:15:11.815Z,43.36
2023-04-28T08:20:11.094Z,43.36
2023-04-28T08:25:10.350Z,42.96
2023-04-28T08:30:09.618Z,44.08
2023-04-28T08:35:09.880Z,45.51
2023-04-28T08:40:09.122Z,46.03
2023-04-28T08:45:08.393Z,46.14
2023-04-28T08:50:06.664Z,45.94
2023-04-28T08:55:05.944Z,45.21
2023-04-28T09:00:06.268Z,44.10
2023-04-28T09:05:05.798Z,44.81
2023-04-28T09:10:03.854Z,46.01
2023-04-28T09:15:03.137Z,44.81
2023-04-28T09:20:03.458Z,43.48
2023-04-28T09:25:01.952Z,44.81
2023-04-28T09:30:01.363Z,44.51
2023-04-28T09:35:00.352Z,45.81
2023-04-28T09:40:00.435Z,44.51
2023-04-28T09:44:58.710Z,44.31
2023-04-28T09:49:57.997Z,44.53
2023-04-28T09:54:58.290Z,46.01
2023-04-28T09:59:56.516Z,43.60
2023-04-28T10:04:55.953Z,46.81
2023-04-28T10:09:57.052Z,43.80
2023-04-28T10:14:54.349Z,44.91
2023-04-28T10:19:55.625Z,44.71
2023-04-28T10:24:52.882Z,44.10
2023-04-28T10:29:52.185Z,45.10
2023-04-28T10:34:51.517Z,43.80
2023-04-28T10:39:50.820Z,44.71
2023-04-28T10:44:50.118Z,43.80
2023-04-28T10:49:49.421Z,45.51
2023-04-28T10:54:48.705Z,45.81
2023-04-28T10:59:48.992Z,44.20
2023-04-28T11:04:48.456Z,44.60
2023-04-28T11:09:48.606Z,46.41
2023-04-28T11:14:45.900Z,44.91
2023-04-28T11:19:47.182Z,45.71
2023-04-28T11:24:44.481Z,43.80
2023-04-28T11:29:43.784Z,45.71
2023-04-28T11:34:44.081Z,44.38
2023-04-28T11:39:42.338Z,43.58
2023-04-28T11:44:42.608Z,45.81
2023-04-28T11:49:40.869Z,46.03
2023-04-28T11:54:40.157Z,44.81
2023-04-28T11:59:40.777Z,44.60
2023-04-28T12:04:37.733Z,44.00
2023-04-28T12:09:38.868Z,42.88
2023-04-28T12:14:38.076Z,42.88
2023-04-28T12:19:37.375Z,42.78
2023-04-28T12:24:37.645Z,44.48
2023-04-28T12:29:35.921Z,43.08
2023-04-28T12:34:35.201Z,42.47
2023-04-28T12:39:35.952Z,42.07
2023-04-28T12:44:32.828Z,41.45
2023-04-28T12:49:32.127Z,43.26
2023-04-28T12:54:32.434Z,41.55
2023-04-28T12:59:30.711Z,41.75
2023-04-28T13:04:31.322Z,43.86
2023-04-28T13:09:29.224Z,41.96
2023-04-28T13:14:28.478Z,42.35
2023-04-28T13:19:27.754Z,42.66
2023-04-28T13:24:27.994Z,42.55
2023-04-28T13:29:27.280Z,44.06
2023-04-28T13:34:26.518Z,43.06
2023-04-28T13:39:25.775Z,41.55
2023-04-28T13:44:24.050Z,43.26
2023-04-28T13:49:24.348Z,46.49
2023-04-28T13:54:22.612Z,45.18
2023-04-28T13:59:22.878Z,44.26
2023-04-28T14:04:21.419Z,43.06
2023-04-28T14:09:21.460Z,42.76
2023-04-28T14:14:19.729Z,44.46
2023-04-28T14:19:20.030Z,42.76
2023-04-28T14:24:18.310Z,42.25
2023-04-28T14:29:18.547Z,43.76
2023-04-28T14:34:16.841Z,43.46
2023-04-28T14:39:16.147Z,42.96
2023-04-28T14:44:18.556Z,42.25
2023-04-28T14:49:14.620Z,42.74
2023-04-28T14:54:14.899Z,42.83
2023-04-28T14:59:14.161Z,42.63
2023-04-28T15:04:13.484Z,42.13
2023-04-28T15:09:11.597Z,42.52
2023-04-28T15:14:10.888Z,38.48
2023-04-28T15:19:11.191Z,37.12
2023-04-28T15:24:09.436Z,36.29
2023-04-28T15:29:09.686Z,35.71
2023-04-28T15:34:08.045Z,33.95
2023-04-28T15:39:08.132Z,32.51
2023-04-28T15:44:06.398Z,32.48
2023-04-28T15:49:06.661Z,30.06
2023-04-28T15:54:05.942Z,29.54
2023-04-28T15:59:04.237Z,29.54
2023-04-28T16:04:04.858Z,29.43
2023-04-28T16:09:03.858Z,29.93
2023-04-28T16:14:03.137Z,29.32
2023-04-28T16:19:00.428Z,28.69
2023-04-28T16:23:59.658Z,29.30
2023-04-28T16:28:59.889Z,29.30
2023-04-28T16:33:59.175Z,29.60
2023-04-28T16:38:58.431Z,29.61
2023-04-28T16:43:58.691Z,30.02
2023-04-28T16:48:56.950Z,29.71
2023-04-28T16:53:59.363Z,30.32
2023-04-28T16:58:55.396Z,30.32
2023-04-28T17:03:55.763Z,29.38
2023-04-28T17:08:54.864Z,30.30
2023-04-28T17:13:54.106Z,31.51
2023-04-28T17:18:52.361Z,30.92
2023-04-28T17:23:51.645Z,30.69
2023-04-28T17:28:51.903Z,29.60
2023-04-28T17:33:50.180Z,29.60
2023-04-28T17:38:49.490Z,30.60
2023-04-28T17:43:48.784Z,29.79
2023-04-28T17:48:48.076Z,29.99
2023-04-28T17:53:47.377Z,29.58
2023-04-28T17:58:46.635Z,30.41
2023-04-28T18:03:47.885Z,29.99
2023-04-28T18:08:46.187Z,29.60
2023-04-28T18:13:44.477Z,30.11
2023-04-28T18:18:46.133Z,30.32
2023-04-28T18:23:43.381Z,31.25
2023-04-28T18:28:43.711Z,29.80
2023-04-28T18:33:41.717Z,29.28
2023-04-28T18:38:41.121Z,29.79
2023-04-28T18:43:40.209Z,30.60
2023-04-28T18:48:40.694Z,30.09
2023-04-28T18:53:38.415Z,30.61
2023-04-28T18:58:39.000Z,30.09
2023-04-28T19:03:36.460Z,29.78
2023-04-28T19:08:37.275Z,30.09
2023-04-28T19:13:36.409Z,30.09
2023-04-28T19:18:35.085Z,29.88
2023-04-28T19:23:35.122Z,29.48
2023-04-28T19:28:33.335Z,29.78
2023-04-28T19:33:32.398Z,29.97
2023-04-28T19:38:31.995Z,30.38
2023-04-28T19:43:31.124Z,30.17
2023-04-28T19:48:30.264Z,30.29
2023-04-28T19:53:29.500Z,29.97
2023-04-28T19:58:30.743Z,29.97
2023-04-28T20:03:28.329Z,29.88
2023-04-28T20:08:28.107Z,30.09
2023-04-28T20:13:28.338Z,29.25
2023-04-28T20:18:26.555Z,29.97
2023-04-28T20:23:24.885Z,30.27
2023-04-28T20:28:28.154Z,29.66
2023-04-28T20:33:23.200Z,30.27
2023-04-28T20:38:22.490Z,30.27
2023-04-28T20:43:23.877Z,30.27
2023-04-28T20:48:20.921Z,30.07
2023-04-28T20:53:21.246Z,30.99
2023-04-28T20:58:19.548Z,30.89
2023-04-28T21:03:19.854Z,30.78
2023-04-28T21:08:17.975Z,30.06
2023-04-28T21:13:17.233Z,30.26
2023-04-28T21:18:18.475Z,31.16
2023-04-28T21:23:15.704Z,30.16
2023-04-28T21:28:14.981Z,29.75
2023-04-28T21:33:14.271Z,29.75
2023-04-28T21:38:12.541Z,29.66
2023-04-28T21:43:12.827Z,29.24
2023-04-28T21:48:13.256Z,28.74
2023-04-28T21:53:12.400Z,28.85
2023-04-28T21:58:10.661Z,29.24
2023-04-28T22:03:11.220Z,30.06
2023-04-28T22:08:09.218Z,29.24
2023-04-28T22:13:08.519Z,29.66
2023-04-28T22:18:07.793Z,30.27
2023-04-28T22:23:07.076Z,30.47
2023-04-28T22:28:07.368Z,29.75
2023-04-28T22:33:05.645Z,29.44
2023-04-28T22:38:04.940Z,29.85
2023-04-28T22:43:04.225Z,29.96
2023-04-28T22:48:04.516Z,29.52
2023-04-28T22:53:04.771Z,29.34
2023-04-28T22:58:02.056Z,29.23
2023-04-28T23:03:01.413Z,30.06
2023-04-28T23:08:01.559Z,29.85
2023-04-28T23:13:00.853Z,29.34
2023-04-28T23:17:59.223Z,29.13
2023-04-28T23:22:58.474Z,30.13
2023-04-28T23:27:59.757Z,29.85
2023-04-28T23:33:01.041Z,29.33
2023-04-28T23:37:57.293Z,29.23
2023-04-28T23:42:55.618Z,29.74
2023-04-28T23:47:55.871Z,30.04
2023-04-28T23:52:53.983Z,30.15
2023-04-28T23:57:53.358Z,30.13
